createdAt,value
2023-03-11T00:00:30.017Z,10.04
2023-03-11T00:03:00.334Z,10.04
2023-03-11T00:05:31.144Z,10.03
2023-03-11T00:08:00.013Z,10.03
2023-03-11T00:10:30.872Z,10.02
2023-03-11T00:13:00.191Z,9.99
2023-03-11T00:15:29.112Z,9.96
2023-03-11T00:17:57.496Z,9.98
2023-03-11T00:20:31.993Z,9.95
2023-03-11T00:23:00.727Z,9.94
2023-03-11T00:25:30.900Z,9.91
2023-03-11T00:27:59.351Z,9.88
2023-03-11T00:30:28.125Z,9.89
2023-03-11T00:32:57.733Z,9.83
2023-03-11T00:35:28.525Z,9.80
2023-03-11T00:37:59.826Z,9.77
2023-03-11T00:40:29.315Z,9.51
2023-03-11T00:42:57.839Z,9.70
2023-03-11T00:45:26.251Z,9.76
2023-03-11T00:47:54.884Z,9.64
2023-03-11T00:50:26.237Z,9.72
2023-03-11T00:52:54.346Z,9.68
2023-03-11T00:55:25.715Z,9.64
2023-03-11T00:57:55.271Z,9.64
2023-03-11T01:00:24.892Z,9.34
2023-03-11T01:03:00.306Z,9.55
2023-03-11T01:05:30.993Z,9.50
2023-03-11T01:07:59.269Z,9.46
2023-03-11T01:10:29.805Z,9.14
2023-03-11T01:12:57.696Z,9.33
2023-03-11T01:15:34.604Z,9.39
2023-03-11T01:18:04.163Z,9.09
2023-03-11T01:20:32.848Z,9.18
2023-03-11T01:23:00.277Z,9.53
2023-03-11T01:25:29.003Z,9.57
2023-03-11T01:27:59.331Z,9.57
2023-03-11T01:30:28.105Z,9.58
2023-03-11T01:32:57.016Z,9.57
2023-03-11T01:35:27.160Z,9.58
2023-03-11T01:37:55.446Z,9.58
2023-03-11T01:40:57.310Z,9.60
2023-03-11T01:43:39.917Z,9.64
2023-03-11T01:46:12.571Z,9.66
2023-03-11T01:48:45.148Z,9.37
2023-03-11T01:51:13.430Z,9.38
2023-03-11T01:53:41.642Z,9.63
2023-03-11T01:56:09.292Z,9.64
2023-03-11T01:58:41.178Z,9.63
2023-03-11T02:01:08.951Z,9.58
2023-03-11T02:03:39.808Z,9.56
2023-03-11T02:06:11.327Z,9.56
2023-03-11T02:08:42.075Z,9.52
2023-03-11T02:11:15.609Z,9.49
2023-03-11T02:13:45.338Z,9.53
2023-03-11T02:16:14.328Z,9.51
2023-03-11T02:18:43.493Z,9.23
2023-03-11T02:21:32.675Z,9.49
2023-03-11T02:24:29.706Z,9.50
2023-03-11T02:27:02.949Z,9.43
2023-03-11T02:29:33.159Z,9.52
2023-03-11T02:32:08.880Z,9.48
2023-03-11T02:34:39.532Z,9.38
2023-03-11T02:37:10.542Z,9.40
2023-03-11T02:39:40.541Z,9.39
2023-03-11T02:42:14.243Z,9.46
2023-03-11T02:44:46.605Z,9.51
2023-03-11T02:47:15.367Z,9.45
2023-03-11T02:49:43.263Z,9.44
2023-03-11T02:52:12.995Z,9.45
2023-03-11T02:54:40.546Z,9.44
2023-03-11T02:57:08.628Z,9.51
2023-03-11T02:59:36.150Z,9.46
2023-03-11T03:02:04.103Z,9.53
2023-03-11T03:04:32.174Z,9.52
2023-03-11T03:07:00.073Z,9.38
2023-03-11T03:09:27.654Z,9.45
2023-03-11T03:11:56.480Z,9.46
2023-03-11T03:14:24.057Z,9.43
2023-03-11T03:16:51.537Z,9.37
2023-03-11T03:19:19.544Z,9.38
2023-03-11T03:21:47.527Z,9.28
2023-03-11T03:24:15.700Z,9.28
2023-03-11T03:26:43.415Z,9.15
2023-03-11T03:29:11.414Z,9.14
2023-03-11T03:31:39.717Z,9.06
2023-03-11T03:34:08.838Z,9.01
2023-03-11T03:36:37.106Z,8.98
2023-03-11T03:39:05.683Z,8.89
2023-03-11T03:41:34.088Z,8.92
2023-03-11T03:44:02.598Z,8.89
2023-03-11T03:46:30.215Z,8.84
2023-03-11T03:48:58.299Z,8.68
2023-03-11T03:51:26.837Z,8.81
2023-03-11T03:53:55.749Z,8.50
2023-03-11T03:56:25.204Z,8.81
2023-03-11T03:58:53.707Z,8.82
2023-03-11T04:01:21.845Z,8.78
2023-03-11T04:03:50.024Z,8.73
2023-03-11T04:06:25.818Z,8.71
2023-03-11T04:08:55.058Z,8.68
2023-03-11T04:11:23.805Z,8.66
2023-03-11T04:13:51.922Z,8.64
2023-03-11T04:16:22.536Z,8.64
2023-03-11T04:18:50.856Z,8.63
2023-03-11T04:21:18.682Z,8.64
2023-03-11T04:23:46.686Z,8.59
2023-03-11T04:26:14.821Z,8.31
2023-03-11T04:28:42.538Z,8.55
2023-03-11T04:31:10.418Z,8.54
2023-03-11T04:33:38.106Z,8.50
2023-03-11T04:36:08.470Z,8.50
2023-03-11T04:38:36.695Z,8.38
2023-03-11T04:41:06.767Z,8.17
2023-03-11T04:43:35.035Z,8.39
2023-03-11T04:46:03.152Z,8.11
2023-03-11T04:48:30.715Z,8.35
2023-03-11T04:50:58.176Z,8.31
2023-03-11T04:53:29.286Z,8.27
2023-03-11T04:55:57.008Z,8.27
2023-03-11T04:58:24.937Z,8.34
2023-03-11T05:00:53.341Z,8.42
2023-03-11T05:03:21.517Z,8.44
2023-03-11T05:05:49.418Z,8.52
2023-03-11T05:08:20.146Z,8.51
2023-03-11T05:10:47.862Z,8.41
2023-03-11T05:13:15.339Z,8.42
2023-03-11T05:15:45.663Z,8.38
2023-03-11T05:18:14.050Z,8.39
2023-03-11T05:20:42.182Z,8.34
2023-03-11T05:23:10.342Z,8.34
2023-03-11T05:25:37.814Z,8.33
2023-03-11T05:28:05.874Z,8.26
2023-03-11T05:30:34.624Z,8.25
2023-03-11T05:33:02.232Z,7.98
2023-03-11T05:35:29.797Z,8.29
2023-03-11T05:37:57.678Z,8.30
2023-03-11T05:40:26.115Z,8.28
2023-03-11T05:42:53.697Z,8.22
2023-03-11T05:45:21.419Z,8.13
2023-03-11T05:47:52.476Z,8.06
2023-03-11T05:50:20.251Z,7.99
2023-03-11T05:52:48.487Z,7.90
2023-03-11T05:55:16.316Z,7.89
2023-03-11T05:57:44.571Z,7.82
2023-03-11T06:00:12.933Z,7.78
2023-03-11T06:02:41.336Z,7.64
2023-03-11T06:05:13.441Z,7.58
2023-03-11T06:07:43.648Z,7.39
2023-03-11T06:10:12.398Z,7.20
2023-03-11T06:12:40.335Z,7.02
2023-03-11T06:15:08.858Z,6.83
2023-03-11T06:17:36.927Z,6.68
2023-03-11T06:20:06.177Z,6.54
2023-03-11T06:22:34.530Z,6.47
2023-03-11T06:25:02.550Z,6.37
2023-03-11T06:27:31.429Z,6.30
2023-03-11T06:29:59.211Z,6.14
2023-03-11T06:32:29.633Z,5.99
2023-03-11T06:34:57.390Z,5.84
2023-03-11T06:37:25.694Z,5.68
2023-03-11T06:39:54.604Z,5.14
2023-03-11T06:42:24.054Z,5.15
2023-03-11T06:44:52.202Z,4.80
2023-03-11T06:47:20.743Z,5.01
2023-03-11T06:49:50.647Z,5.13
2023-03-11T06:52:18.555Z,5.14
2023-03-11T06:54:46.655Z,5.20
2023-03-11T06:57:16.836Z,5.23
2023-03-11T06:59:45.827Z,5.45
2023-03-11T07:02:15.043Z,5.65
2023-03-11T07:04:42.889Z,5.83
2023-03-11T07:07:10.324Z,5.78
2023-03-11T07:09:38.273Z,6.10
2023-03-11T07:12:06.918Z,6.24
2023-03-11T07:14:34.931Z,6.38
2023-03-11T07:17:02.792Z,6.37
2023-03-11T07:19:31.494Z,6.40
2023-03-11T07:21:58.888Z,6.27
2023-03-11T07:24:26.656Z,6.25
2023-03-11T07:26:54.092Z,6.29
2023-03-11T07:29:21.546Z,6.32
2023-03-11T07:31:49.533Z,6.33
2023-03-11T07:34:17.664Z,6.41
2023-03-11T07:36:45.165Z,6.46
2023-03-11T07:39:16.297Z,6.46
2023-03-11T07:41:44.899Z,6.28
2023-03-11T07:44:14.186Z,6.15
2023-03-11T07:46:42.291Z,6.25
2023-03-11T07:49:10.338Z,6.24
2023-03-11T07:51:42.470Z,6.09
2023-03-11T07:54:12.088Z,6.15
2023-03-11T07:56:40.119Z,6.15
2023-03-11T07:59:07.986Z,6.10
2023-03-11T08:01:41.123Z,6.09
2023-03-11T08:04:14.467Z,6.12
2023-03-11T08:06:43.771Z,6.09
2023-03-11T08:09:12.262Z,6.12
2023-03-11T08:11:39.808Z,6.11
2023-03-11T08:14:07.643Z,6.15
2023-03-11T08:16:35.444Z,6.15
2023-03-11T08:19:03.194Z,6.20
2023-03-11T08:21:32.230Z,6.15
2023-03-11T08:24:01.714Z,6.22
2023-03-11T08:26:30.250Z,6.19
2023-03-11T08:28:59.137Z,6.32
2023-03-11T08:31:29.781Z,6.32
2023-03-11T08:34:05.613Z,6.36
2023-03-11T08:36:34.155Z,6.40
2023-03-11T08:39:02.035Z,6.43
2023-03-11T08:41:29.763Z,6.08
2023-03-11T08:43:57.518Z,6.30
2023-03-11T08:46:36.940Z,6.25
2023-03-11T08:49:06.024Z,6.27
2023-03-11T08:51:34.499Z,6.27
2023-03-11T08:54:03.433Z,6.18
2023-03-11T08:56:31.400Z,6.08
2023-03-11T08:58:59.473Z,6.46
2023-03-11T09:01:26.973Z,6.48
2023-03-11T09:03:54.672Z,6.52
2023-03-11T09:06:22.525Z,6.58
2023-03-11T09:08:50.551Z,6.65
2023-03-11T09:11:19.415Z,6.16
2023-03-11T09:13:46.967Z,6.62
2023-03-11T09:16:17.039Z,6.77
2023-03-11T09:18:45.232Z,6.75
2023-03-11T09:21:13.352Z,6.72
2023-03-11T09:23:43.944Z,6.87
2023-03-11T09:26:12.916Z,6.79
2023-03-11T09:28:41.744Z,6.78
2023-03-11T09:31:09.636Z,6.44
2023-03-11T09:33:40.310Z,6.72
2023-03-11T09:36:08.801Z,6.78
2023-03-11T09:38:36.349Z,6.77
2023-03-11T09:41:06.831Z,6.82
2023-03-11T09:44:00.541Z,6.61
2023-03-11T09:47:04.096Z,6.95
2023-03-11T09:49:59.241Z,6.92
2023-03-11T09:52:56.606Z,7.02
2023-03-11T09:55:27.303Z,7.20
2023-03-11T09:57:57.755Z,7.25
2023-03-11T10:00:25.972Z,7.52
2023-03-11T10:02:53.934Z,7.39
2023-03-11T10:05:27.487Z,7.11
2023-03-11T10:08:44.307Z,7.22
2023-03-11T10:11:34.913Z,7.47
2023-03-11T10:14:03.030Z,7.45
2023-03-11T10:16:41.561Z,7.20
2023-03-11T10:19:44.431Z,7.48
2023-03-11T10:22:44.127Z,7.78
2023-03-11T10:25:39.543Z,7.68
2023-03-11T10:28:16.635Z,7.88
2023-03-11T10:30:52.422Z,7.84
2023-03-11T10:34:10.373Z,7.96
2023-03-11T10:37:03.984Z,7.65
2023-03-11T10:39:33.210Z,7.67
2023-03-11T10:42:04.427Z,7.58
2023-03-11T10:44:35.863Z,7.69
2023-03-11T10:47:04.444Z,7.77
2023-03-11T10:49:32.455Z,7.97
2023-03-11T10:52:03.372Z,7.80
2023-03-11T10:54:34.915Z,8.26
2023-03-11T10:57:05.524Z,7.90
2023-03-11T10:59:45.276Z,8.11
2023-03-11T11:02:19.523Z,8.06
2023-03-11T11:04:47.442Z,7.97
2023-03-11T11:07:36.511Z,8.28
2023-03-11T11:10:21.370Z,8.32
2023-03-11T11:12:54.269Z,8.28
2023-03-11T11:15:33.644Z,8.23
2023-03-11T11:18:23.040Z,8.12
2023-03-11T11:21:02.177Z,8.35
2023-03-11T11:23:32.392Z,8.33
2023-03-11T11:26:07.369Z,7.83
2023-03-11T11:28:35.244Z,7.90
2023-03-11T11:31:06.228Z,8.34
2023-03-11T11:33:57.299Z,8.13
2023-03-11T11:36:31.218Z,8.29
2023-03-11T11:39:00.580Z,7.86
2023-03-11T11:41:32.027Z,7.81
2023-03-11T11:44:02.937Z,7.93
2023-03-11T11:46:37.548Z,8.08
2023-03-11T11:49:25.767Z,8.27
2023-03-11T11:52:11.443Z,8.31
2023-03-11T11:54:58.945Z,8.43
2023-03-11T11:57:27.186Z,8.21
2023-03-11T11:59:57.303Z,8.59
2023-03-11T12:02:34.615Z,8.72
2023-03-11T12:05:08.513Z,8.66
2023-03-11T12:07:45.156Z,8.70
2023-03-11T12:10:37.947Z,9.20
2023-03-11T12:13:23.876Z,9.15
2023-03-11T12:16:16.046Z,9.60
2023-03-11T12:18:57.075Z,9.65
2023-03-11T12:22:02.462Z,9.26
2023-03-11T12:24:32.908Z,9.34
2023-03-11T12:27:08.788Z,9.36
2023-03-11T12:29:43.247Z,9.79
2023-03-11T12:32:25.088Z,9.32
2023-03-11T12:34:53.353Z,9.72
2023-03-11T12:37:23.436Z,9.40
2023-03-11T12:39:51.036Z,8.98
2023-03-11T12:42:21.996Z,9.30
2023-03-11T12:44:50.442Z,9.45
2023-03-11T12:47:20.880Z,9.48
2023-03-11T12:49:52.057Z,9.75
2023-03-11T12:52:23.356Z,9.65
2023-03-11T12:54:56.712Z,9.58
2023-03-11T12:57:46.072Z,9.41
2023-03-11T13:00:38.523Z,9.22
2023-03-11T13:03:13.074Z,9.53
2023-03-11T13:06:19.548Z,9.16
2023-03-11T13:08:56.830Z,9.42
2023-03-11T13:11:33.341Z,10.08
2023-03-11T13:14:35.894Z,10.38
2023-03-11T13:17:31.262Z,10.50
2023-03-11T13:19:59.316Z,10.25
2023-03-11T13:22:52.093Z,10.24
2023-03-11T13:25:38.405Z,9.95
2023-03-11T13:28:24.171Z,10.13
2023-03-11T13:31:05.196Z,9.93
2023-03-11T13:33:52.260Z,9.84
2023-03-11T13:36:57.403Z,9.81
2023-03-11T13:39:47.485Z,10.06
2023-03-11T13:42:31.328Z,9.59
2023-03-11T13:44:59.924Z,9.22
2023-03-11T13:47:30.356Z,9.33
2023-03-11T13:50:07.580Z,9.20
2023-03-11T13:52:46.732Z,9.09
2023-03-11T13:55:40.305Z,9.24
2023-03-11T13:58:25.691Z,9.26
2023-03-11T14:00:55.657Z,9.00
2023-03-11T14:03:25.557Z,9.35
2023-03-11T14:06:00.881Z,9.15
2023-03-11T14:08:31.866Z,9.12
2023-03-11T14:11:01.717Z,9.36
2023-03-11T14:13:38.398Z,9.25
2023-03-11T14:16:35.996Z,9.06
2023-03-11T14:19:15.697Z,9.21
2023-03-11T14:21:44.887Z,9.25
2023-03-11T14:24:31.983Z,9.30
2023-03-11T14:27:02.690Z,8.89
2023-03-11T14:29:36.677Z,8.71
2023-03-11T14:32:23.970Z,8.63
2023-03-11T14:34:51.760Z,8.29
2023-03-11T14:37:36.012Z,8.22
2023-03-11T14:40:21.639Z,8.33
2023-03-11T14:42:53.851Z,8.22
2023-03-11T14:45:24.497Z,8.19
2023-03-11T14:47:56.682Z,8.07
2023-03-11T14:50:27.159Z,8.05
2023-03-11T14:53:02.412Z,8.02
2023-03-11T14:55:57.771Z,7.94
2023-03-11T14:58:36.166Z,7.97
2023-03-11T15:01:13.419Z,7.84
2023-03-11T15:03:53.660Z,7.69
2023-03-11T15:06:30.140Z,7.53
2023-03-11T15:09:10.169Z,7.42
2023-03-11T15:11:52.283Z,7.31
2023-03-11T15:14:50.134Z,7.34
2023-03-11T15:17:38.489Z,7.30
2023-03-11T15:20:31.247Z,7.45
2023-03-11T15:23:04.638Z,7.40
2023-03-11T15:25:36.067Z,7.16
2023-03-11T15:28:33.680Z,7.45
2023-03-11T15:31:19.899Z,7.60
2023-03-11T15:33:49.188Z,7.66
2023-03-11T15:36:31.938Z,7.68
2023-03-11T15:39:08.826Z,7.68
2023-03-11T15:41:36.563Z,7.67
2023-03-11T15:44:07.563Z,7.53
2023-03-11T15:46:35.090Z,7.40
2023-03-11T15:49:02.601Z,7.19
2023-03-11T15:51:30.447Z,7.03
2023-03-11T15:53:58.148Z,6.99
2023-03-11T15:56:25.987Z,6.95
2023-03-11T15:58:53.819Z,6.82
2023-03-11T16:01:28.479Z,6.53
2023-03-11T16:03:56.639Z,6.77
2023-03-11T16:06:24.111Z,6.76
2023-03-11T16:08:51.563Z,6.69
2023-03-11T16:11:19.791Z,6.40
2023-03-11T16:13:47.847Z,6.58
2023-03-11T16:16:17.428Z,6.56
2023-03-11T16:18:45.381Z,6.51
2023-03-11T16:21:17.136Z,6.42
2023-03-11T16:23:52.005Z,6.37
2023-03-11T16:26:22.434Z,6.31
2023-03-11T16:28:50.477Z,6.24
2023-03-11T16:31:18.149Z,6.17
2023-03-11T16:33:45.905Z,6.10
2023-03-11T16:36:13.827Z,6.09
2023-03-11T16:38:47.421Z,5.85
2023-03-11T16:41:17.151Z,5.94
2023-03-11T16:43:45.492Z,5.89
2023-03-11T16:46:13.190Z,5.89
2023-03-11T16:48:41.065Z,5.82
2023-03-11T16:51:08.811Z,5.47
2023-03-11T16:53:36.534Z,5.84
2023-03-11T16:56:05.555Z,5.73
2023-03-11T16:58:33.907Z,5.68
2023-03-11T17:01:01.568Z,5.60
2023-03-11T17:03:41.026Z,5.59
2023-03-11T17:06:10.725Z,5.52
2023-03-11T17:08:38.779Z,5.14
2023-03-11T17:11:13.643Z,5.50
2023-03-11T17:13:41.501Z,5.47
2023-03-11T17:16:09.032Z,5.38
2023-03-11T17:18:37.039Z,5.38
2023-03-11T17:21:10.611Z,5.31
2023-03-11T17:23:39.547Z,5.30
2023-03-11T17:26:10.051Z,5.18
2023-03-11T17:28:38.343Z,5.15
2023-03-11T17:31:10.919Z,5.09
2023-03-11T17:33:38.995Z,5.05
2023-03-11T17:36:09.129Z,5.01
2023-03-11T17:38:36.722Z,4.90
2023-03-11T17:41:13.424Z,4.95
2023-03-11T17:43:42.185Z,4.68
2023-03-11T17:46:14.468Z,4.86
2023-03-11T17:48:47.148Z,4.81
2023-03-11T17:51:18.274Z,4.45
2023-03-11T17:53:47.812Z,4.72
2023-03-11T17:56:18.522Z,4.63
2023-03-11T17:58:46.967Z,4.59
2023-03-11T18:01:21.665Z,4.49
2023-03-11T18:03:50.116Z,4.45
2023-03-11T18:06:19.504Z,4.42
2023-03-11T18:08:48.145Z,4.33
2023-03-11T18:11:19.341Z,4.51
2023-03-11T18:13:47.863Z,4.14
2023-03-11T18:16:24.364Z,4.42
2023-03-11T18:18:54.463Z,4.45
2023-03-11T18:21:27.769Z,4.30
2023-03-11T18:23:57.933Z,4.34
2023-03-11T18:26:27.661Z,4.47
2023-03-11T18:28:57.402Z,4.44
2023-03-11T18:31:26.425Z,4.47
2023-03-11T18:34:00.139Z,4.43
2023-03-11T18:36:33.566Z,4.44
2023-03-11T18:39:02.042Z,4.38
2023-03-11T18:41:32.912Z,4.35
2023-03-11T18:44:01.319Z,4.32
2023-03-11T18:46:33.613Z,4.16
2023-03-11T18:49:03.893Z,4.19
2023-03-11T18:51:32.751Z,4.23
2023-03-11T18:54:02.030Z,4.17
2023-03-11T18:56:32.936Z,4.09
2023-03-11T18:59:00.970Z,4.03
2023-03-11T19:01:29.240Z,3.97
2023-03-11T19:03:59.458Z,3.92
2023-03-11T19:06:29.342Z,3.88
2023-03-11T19:09:00.729Z,3.76
2023-03-11T19:11:28.483Z,3.72
2023-03-11T19:13:56.023Z,3.63
2023-03-11T19:16:26.220Z,3.65
2023-03-11T19:18:55.274Z,3.70
2023-03-11T19:21:23.550Z,3.66
2023-03-11T19:23:55.067Z,3.67
2023-03-11T19:26:41.534Z,3.70
2023-03-11T19:29:13.557Z,3.84
2023-03-11T19:31:43.407Z,3.81
2023-03-11T19:34:11.413Z,3.69
2023-03-11T19:36:39.526Z,3.73
2023-03-11T19:39:08.214Z,3.79
2023-03-11T19:41:36.067Z,3.73
2023-03-11T19:44:04.361Z,3.57
2023-03-11T19:46:34.750Z,3.66
2023-03-11T19:49:03.493Z,3.31
2023-03-11T19:51:46.334Z,3.58
2023-03-11T19:54:16.733Z,3.54
2023-03-11T19:56:45.812Z,3.47
2023-03-11T19:59:13.543Z,3.46
2023-03-11T20:01:42.389Z,3.45
2023-03-11T20:04:11.148Z,3.29
2023-03-11T20:06:38.998Z,3.19
2023-03-11T20:09:07.001Z,3.17
2023-03-11T20:11:40.911Z,3.10
2023-03-11T20:14:10.401Z,3.09
2023-03-11T20:16:39.133Z,3.11
2023-03-11T20:19:06.856Z,3.00
2023-03-11T20:21:38.997Z,3.02
2023-03-11T20:24:08.577Z,2.97
2023-03-11T20:26:36.949Z,2.94
2023-03-11T20:29:05.940Z,2.92
2023-03-11T20:31:34.820Z,2.81
2023-03-11T20:34:03.427Z,2.24
2023-03-11T20:36:33.269Z,2.82
2023-03-11T20:39:02.317Z,2.51
2023-03-11T20:41:35.753Z,2.79
2023-03-11T20:44:05.770Z,2.74
2023-03-11T20:46:34.058Z,2.71
2023-03-11T20:49:03.062Z,2.71
2023-03-11T20:51:32.523Z,2.71
2023-03-11T20:54:00.341Z,2.72
2023-03-11T20:56:28.583Z,2.74
2023-03-11T20:58:59.169Z,2.28
2023-03-11T21:01:30.105Z,2.60
2023-03-11T21:04:01.433Z,2.57
2023-03-11T21:06:32.504Z,2.12
2023-03-11T21:09:04.871Z,2.29
2023-03-11T21:11:33.499Z,2.36
2023-03-11T21:14:01.887Z,2.31
2023-03-11T21:16:29.774Z,1.95
2023-03-11T21:18:57.981Z,2.31
2023-03-11T21:21:25.933Z,2.31
2023-03-11T21:23:54.203Z,2.24
2023-03-11T21:26:21.750Z,2.27
2023-03-11T21:28:49.503Z,2.26
2023-03-11T21:31:20.550Z,2.23
2023-03-11T21:33:48.477Z,2.23
2023-03-11T21:36:17.128Z,2.21
2023-03-11T21:38:46.919Z,2.18
2023-03-11T21:41:20.432Z,2.13
2023-03-11T21:43:48.575Z,2.16
2023-03-11T21:46:18.950Z,2.17
2023-03-11T21:48:47.498Z,2.10
2023-03-11T21:51:23.912Z,2.08
2023-03-11T21:53:51.504Z,2.07
2023-03-11T21:56:19.587Z,1.69
2023-03-11T21:58:47.652Z,1.98
2023-03-11T22:01:15.931Z,2.00
2023-03-11T22:03:44.182Z,1.94
2023-03-11T22:06:12.376Z,2.01
2023-03-11T22:08:40.354Z,2.02
2023-03-11T22:11:10.218Z,1.93
2023-03-11T22:13:37.797Z,2.01
2023-03-11T22:16:06.868Z,2.00
2023-03-11T22:18:34.726Z,1.92
2023-03-11T22:21:02.852Z,1.88
2023-03-11T22:23:30.723Z,1.86
2023-03-11T22:25:58.671Z,1.86
2023-03-11T22:28:26.227Z,1.66
2023-03-11T22:30:53.851Z,1.79
2023-03-11T22:33:21.582Z,1.95
2023-03-11T22:35:59.525Z,1.92
2023-03-11T22:38:27.652Z,1.92
2023-03-11T22:40:55.087Z,1.86
2023-03-11T22:43:22.783Z,1.55
2023-03-11T22:45:50.547Z,1.51
2023-03-11T22:48:18.053Z,1.86
2023-03-11T22:50:45.597Z,1.84
2023-03-11T22:53:15.140Z,1.82
2023-03-11T22:55:44.038Z,1.82
2023-03-11T22:58:12.301Z,1.78
2023-03-11T23:00:40.654Z,1.76
2023-03-11T23:03:08.206Z,1.71
2023-03-11T23:05:41.836Z,1.70
2023-03-11T23:08:13.537Z,1.68
2023-03-11T23:10:42.364Z,1.35
2023-03-11T23:13:10.957Z,1.71
2023-03-11T23:15:41.394Z,1.63
2023-03-11T23:18:09.263Z,1.66
2023-03-11T23:20:39.894Z,1.38
2023-03-11T23:23:08.900Z,1.59
2023-03-11T23:25:36.777Z,1.39
2023-03-11T23:28:05.749Z,1.56
2023-03-11T23:30:33.434Z,1.56
2023-03-11T23:33:02.986Z,1.59
2023-03-11T23:35:31.407Z,1.56
2023-03-11T23:38:00.179Z,1.57
2023-03-11T23:40:28.593Z,1.54
2023-03-11T23:42:56.162Z,1.37
2023-03-11T23:45:23.930Z,1.50
2023-03-11T23:47:51.708Z,1.52
2023-03-11T23:50:19.463Z,1.52
2023-03-11T23:52:46.973Z,1.51
2023-03-11T23:55:15.156Z,1.41
2023-03-11T23:57:42.608Z,1.37
